createdAt,value
2019-01-25T00:00:15.393Z,77.56
2019-01-25T00:01:15.306Z,77.84
2019-01-25T00:02:15.312Z,77.84
2019-01-25T00:03:15.364Z,77.84
2019-01-25T00:04:15.269Z,78.36
2019-01-25T00:05:15.258Z,78.57
2019-01-25T00:06:15.250Z,78.19
2019-01-25T00:07:15.244Z,78.57
2019-01-25T00:08:15.228Z,78.15
2019-01-25T00:09:15.259Z,78.15
2019-01-25T00:10:15.226Z,78.26
2019-01-25T00:11:15.195Z,78.26
2019-01-25T00:12:15.198Z,78.67
2019-01-25T00:13:15.176Z,78.57
2019-01-25T00:14:15.189Z,78.53
2019-01-25T00:15:15.176Z,77.94
2019-01-25T00:16:15.143Z,78.12
2019-01-25T00:17:15.218Z,78.01
2019-01-25T00:18:15.118Z,78.15
2019-01-25T00:19:15.147Z,78.33
2019-01-25T00:20:15.096Z,78.36
2019-01-25T00:21:15.105Z,78.22
2019-01-25T00:22:15.087Z,78.36
2019-01-25T00:23:15.065Z,78.33
2019-01-25T00:24:15.083Z,78.99
2019-01-25T00:25:15.051Z,78.99
2019-01-25T00:26:15.031Z,78.99
2019-01-25T00:27:15.020Z,78.75
2019-01-25T00:28:15.022Z,78.64
2019-01-25T00:29:15.020Z,78.33
2019-01-25T00:30:15.038Z,78.78
2019-01-25T00:31:14.980Z,77.94
2019-01-25T00:32:14.964Z,78.01
2019-01-25T00:33:14.953Z,77.91
2019-01-25T00:34:14.945Z,78.05
2019-01-25T00:35:15.043Z,77.84
2019-01-25T00:36:15.024Z,77.94
2019-01-25T00:37:14.948Z,77.28
2019-01-25T00:38:14.901Z,77.31
2019-01-25T00:39:14.896Z,77.94
2019-01-25T00:40:14.920Z,77.84
2019-01-25T00:41:14.887Z,78.05
2019-01-25T00:42:14.865Z,77.91
2019-01-25T00:43:14.906Z,77.28
2019-01-25T00:44:14.837Z,78.05
2019-01-25T00:45:14.838Z,77.94
2019-01-25T00:46:14.837Z,78.05
2019-01-25T00:47:14.802Z,78.01
2019-01-25T00:48:14.796Z,78.36
2019-01-25T00:49:14.777Z,78.75
2019-01-25T00:50:14.771Z,78.33
2019-01-25T00:51:14.760Z,78.43
2019-01-25T00:52:14.779Z,78.12
2019-01-25T00:53:14.743Z,78.47
2019-01-25T00:54:14.733Z,78.47
2019-01-25T00:55:14.713Z,78.78
2019-01-25T00:56:14.792Z,78.75
2019-01-25T00:57:14.722Z,78.99
2019-01-25T00:58:14.683Z,78.47
2019-01-25T00:59:14.674Z,77.84
2019-01-25T01:00:14.667Z,78.05
2019-01-25T01:01:14.650Z,78.26
2019-01-25T01:02:14.638Z,78.47
2019-01-25T01:03:14.648Z,78.57
2019-01-25T01:04:14.628Z,78.67
2019-01-25T01:05:14.617Z,78.99
2019-01-25T01:06:14.602Z,78.75
2019-01-25T01:07:14.586Z,79.27
2019-01-25T01:08:14.576Z,79.31
2019-01-25T01:09:15.437Z,80.04
2019-01-25T01:10:14.561Z,79.73
2019-01-25T01:11:14.542Z,79.69
2019-01-25T01:12:14.643Z,79.31
2019-01-25T01:13:14.521Z,79.27
2019-01-25T01:14:14.515Z,79.38
2019-01-25T01:15:14.538Z,79.27
2019-01-25T01:16:14.493Z,78.78
2019-01-25T01:17:14.499Z,78.85
2019-01-25T01:18:14.463Z,78.75
2019-01-25T01:19:14.455Z,78.47
2019-01-25T01:20:14.443Z,77.38
2019-01-25T01:21:14.496Z,77.80
2019-01-25T01:22:14.452Z,78.05
2019-01-25T01:23:14.423Z,78.15
2019-01-25T01:24:14.429Z,77.62
2019-01-25T01:25:14.391Z,77.31
2019-01-25T01:26:14.378Z,77.73
2019-01-25T01:27:14.381Z,78.15
2019-01-25T01:28:14.494Z,78.47
2019-01-25T01:29:14.357Z,79.21
2019-01-25T01:30:14.362Z,79.21
2019-01-25T01:31:14.323Z,79.21
2019-01-25T01:32:14.337Z,79.10
2019-01-25T01:33:14.302Z,79.31
2019-01-25T01:34:14.298Z,79.31
2019-01-25T01:35:14.293Z,79.06
2019-01-25T01:36:14.287Z,79.27
2019-01-25T01:37:14.266Z,79.27
2019-01-25T01:38:14.272Z,79.17
2019-01-25T01:39:14.237Z,79.27
2019-01-25T01:40:21.515Z,79.38
2019-01-25T01:41:15.215Z,79.06
2019-01-25T01:42:14.227Z,78.85
2019-01-25T01:43:14.201Z,78.43
2019-01-25T01:44:14.186Z,78.22
2019-01-25T01:45:14.174Z,78.01
2019-01-25T01:46:14.164Z,77.59
2019-01-25T01:47:14.174Z,78.01
2019-01-25T01:48:14.138Z,77.70
2019-01-25T01:49:14.131Z,77.80
2019-01-25T01:50:14.139Z,78.53
2019-01-25T01:51:14.154Z,78.01
2019-01-25T01:52:14.140Z,78.53
2019-01-25T01:53:14.111Z,78.96
2019-01-25T01:54:14.086Z,78.85
2019-01-25T01:55:14.103Z,78.64
2019-01-25T01:56:14.084Z,78.75
2019-01-25T01:57:14.040Z,78.64
2019-01-25T01:58:14.042Z,78.64
2019-01-25T01:59:14.024Z,78.43
2019-01-25T02:00:14.013Z,78.01
2019-01-25T02:01:14.004Z,78.12
2019-01-25T02:02:14.027Z,78.12
2019-01-25T02:03:14.001Z,77.91
2019-01-25T02:04:13.986Z,78.22
2019-01-25T02:05:13.954Z,78.43
2019-01-25T02:06:14.008Z,78.43
2019-01-25T02:07:13.953Z,78.64
2019-01-25T02:08:14.937Z,78.75
2019-01-25T02:09:13.931Z,78.53
2019-01-25T02:10:13.908Z,78.85
2019-01-25T02:11:13.898Z,78.64
2019-01-25T02:12:13.903Z,78.75
2019-01-25T02:13:13.891Z,78.53
2019-01-25T02:14:13.861Z,78.53
2019-01-25T02:15:13.849Z,78.96
2019-01-25T02:16:13.832Z,78.64
2019-01-25T02:17:13.831Z,79.17
2019-01-25T02:18:13.859Z,79.48
2019-01-25T02:19:13.806Z,79.48
2019-01-25T02:20:13.804Z,79.34
2019-01-25T02:21:13.784Z,79.44
2019-01-25T02:22:13.771Z,79.38
2019-01-25T02:23:13.764Z,79.34
2019-01-25T02:24:13.772Z,78.96
2019-01-25T02:25:13.737Z,79.13
2019-01-25T02:26:13.734Z,79.27
2019-01-25T02:27:13.724Z,78.92
2019-01-25T02:28:13.712Z,79.24
2019-01-25T02:29:13.696Z,79.27
2019-01-25T02:30:13.705Z,78.43
2019-01-25T02:31:13.695Z,78.53
2019-01-25T02:32:13.698Z,78.39
2019-01-25T02:33:13.666Z,78.19
2019-01-25T02:34:13.640Z,78.43
2019-01-25T02:35:13.677Z,78.29
2019-01-25T02:36:13.648Z,78.71
2019-01-25T02:37:13.611Z,78.50
2019-01-25T02:38:13.596Z,78.92
2019-01-25T02:39:13.586Z,78.71
2019-01-25T02:40:13.577Z,78.64
2019-01-25T02:41:13.563Z,78.71
2019-01-25T02:42:13.573Z,78.71
2019-01-25T02:43:13.559Z,79.03
2019-01-25T02:44:13.547Z,79.55
2019-01-25T02:45:13.532Z,78.75
2019-01-25T02:46:13.531Z,78.92
2019-01-25T02:47:13.522Z,79.34
2019-01-25T02:48:13.488Z,79.03
2019-01-25T02:49:13.477Z,78.61
2019-01-25T02:50:13.475Z,78.53
2019-01-25T02:51:13.479Z,78.01
2019-01-25T02:52:13.451Z,77.98
2019-01-25T02:53:13.458Z,78.22
2019-01-25T02:54:13.427Z,78.33
2019-01-25T02:55:13.412Z,78.53
2019-01-25T02:56:13.409Z,78.12
2019-01-25T02:57:13.394Z,78.43
2019-01-25T02:58:13.402Z,78.43
2019-01-25T02:59:13.374Z,78.43
2019-01-25T03:00:13.365Z,78.12
2019-01-25T03:01:13.345Z,78.53
2019-01-25T03:02:13.343Z,78.22
2019-01-25T03:03:13.333Z,78.01
2019-01-25T03:04:13.341Z,78.01
2019-01-25T03:05:13.351Z,78.01
2019-01-25T03:06:13.293Z,78.57
2019-01-25T03:07:13.283Z,78.12
2019-01-25T03:08:13.271Z,79.06
2019-01-25T03:09:13.298Z,79.06
2019-01-25T03:10:13.254Z,79.38
2019-01-25T03:11:13.259Z,79.27
2019-01-25T03:12:13.231Z,79.48
2019-01-25T03:13:13.218Z,79.38
2019-01-25T03:14:13.208Z,79.17
2019-01-25T03:15:13.335Z,79.58
2019-01-25T03:16:13.209Z,80.22
2019-01-25T03:17:13.176Z,80.11
2019-01-25T03:18:13.161Z,80.22
2019-01-25T03:19:13.159Z,79.48
2019-01-25T03:20:13.147Z,79.17
2019-01-25T03:21:13.145Z,79.27
2019-01-25T03:22:13.150Z,78.78
2019-01-25T03:23:13.111Z,78.64
2019-01-25T03:24:13.098Z,79.06
2019-01-25T03:25:13.092Z,79.38
2019-01-25T03:26:13.078Z,79.17
2019-01-25T03:27:13.063Z,79.58
2019-01-25T03:28:13.072Z,79.38
2019-01-25T03:29:13.087Z,79.27
2019-01-25T03:30:13.035Z,79.27
2019-01-25T03:31:13.078Z,79.06
2019-01-25T03:32:13.019Z,79.17
2019-01-25T03:33:13.005Z,79.69
2019-01-25T03:34:13.049Z,80.00
2019-01-25T03:35:13.001Z,80.11
2019-01-25T03:36:12.978Z,80.00
2019-01-25T03:37:12.999Z,79.80
2019-01-25T03:38:12.947Z,79.38
2019-01-25T03:39:12.939Z,79.69
2019-01-25T03:40:12.924Z,79.38
2019-01-25T03:41:12.919Z,79.66
2019-01-25T03:42:12.901Z,79.58
2019-01-25T03:43:12.915Z,79.58
2019-01-25T03:44:12.905Z,79.27
2019-01-25T03:45:12.896Z,79.27
2019-01-25T03:46:12.865Z,79.27
2019-01-25T03:47:12.868Z,79.27
2019-01-25T03:48:12.860Z,79.80
2019-01-25T03:49:12.830Z,80.11
2019-01-25T03:50:12.848Z,79.90
2019-01-25T03:51:12.805Z,79.80
2019-01-25T03:52:12.797Z,80.00
2019-01-25T03:53:12.787Z,79.90
2019-01-25T03:54:12.805Z,80.11
2019-01-25T03:55:12.781Z,79.27
2019-01-25T03:56:12.778Z,79.06
2019-01-25T03:57:12.747Z,79.13
2019-01-25T03:58:12.731Z,79.24
2019-01-25T03:59:12.723Z,79.17
2019-01-25T04:00:12.718Z,79.34
2019-01-25T04:01:12.725Z,79.86
2019-01-25T04:02:12.684Z,79.86
2019-01-25T04:03:12.681Z,79.90
2019-01-25T04:04:12.667Z,79.97
2019-01-25T04:05:12.659Z,80.00
2019-01-25T04:06:12.645Z,79.80
2019-01-25T04:07:12.666Z,79.80
2019-01-25T04:08:12.623Z,79.48
2019-01-25T04:09:12.614Z,79.69
2019-01-25T04:10:12.619Z,79.69
2019-01-25T04:11:13.445Z,79.90
2019-01-25T04:12:12.584Z,80.11
2019-01-25T04:13:12.596Z,80.00
2019-01-25T04:14:12.589Z,79.90
2019-01-25T04:15:12.545Z,79.76
2019-01-25T04:16:12.542Z,79.80
2019-01-25T04:17:12.523Z,79.38
2019-01-25T04:18:12.537Z,80.18
2019-01-25T04:19:12.502Z,80.00
2019-01-25T04:20:12.496Z,80.60
2019-01-25T04:21:12.495Z,81.02
2019-01-25T04:22:12.472Z,80.85
2019-01-25T04:23:12.484Z,80.60
2019-01-25T04:24:12.571Z,80.91
2019-01-25T04:25:12.438Z,81.27
2019-01-25T04:26:12.433Z,80.91
2019-01-25T04:27:12.435Z,80.39
2019-01-25T04:28:12.430Z,80.71
2019-01-25T04:29:12.413Z,80.60
2019-01-25T04:30:12.382Z,81.02
2019-01-25T04:31:12.374Z,80.91
2019-01-25T04:32:12.360Z,80.39
2019-01-25T04:33:12.352Z,80.49
2019-01-25T04:34:12.340Z,80.49
2019-01-25T04:35:12.355Z,80.60
2019-01-25T04:36:12.322Z,81.02
2019-01-25T04:37:12.312Z,81.23
2019-01-25T04:38:12.300Z,80.49
2019-01-25T04:39:12.312Z,80.74
2019-01-25T04:40:12.273Z,81.12
2019-01-25T04:41:12.273Z,80.29
2019-01-25T04:42:12.247Z,80.08
2019-01-25T04:43:12.255Z,80.29
2019-01-25T04:44:12.230Z,81.12
2019-01-25T04:45:12.239Z,80.18
2019-01-25T04:46:12.231Z,80.29
2019-01-25T04:47:12.199Z,80.71
2019-01-25T04:48:12.286Z,80.91
2019-01-25T04:49:12.177Z,80.71
2019-01-25T04:50:12.161Z,81.23
2019-01-25T04:51:12.271Z,80.91
2019-01-25T04:52:12.145Z,80.81
2019-01-25T04:53:12.135Z,80.60
2019-01-25T04:54:12.151Z,80.71
2019-01-25T04:55:12.106Z,80.71
2019-01-25T04:56:12.100Z,81.34
2019-01-25T04:57:12.098Z,81.23
2019-01-25T04:58:12.094Z,81.23
2019-01-25T04:59:12.067Z,81.44
2019-01-25T05:00:12.077Z,81.02
2019-01-25T05:01:12.046Z,81.12
2019-01-25T05:02:12.513Z,81.23
2019-01-25T05:03:12.023Z,81.23
2019-01-25T05:04:12.021Z,81.23
2019-01-25T05:05:12.004Z,80.81
2019-01-25T05:06:12.003Z,81.34
2019-01-25T05:07:11.991Z,81.34
2019-01-25T05:08:12.006Z,81.37
2019-01-25T05:09:11.962Z,81.02
2019-01-25T05:10:12.124Z,81.12
2019-01-25T05:11:19.450Z,81.65
2019-01-25T05:12:12.923Z,81.44
2019-01-25T05:13:11.939Z,81.96
2019-01-25T05:14:11.943Z,81.12
2019-01-25T05:15:11.935Z,81.12
2019-01-25T05:16:11.891Z,81.65
2019-01-25T05:17:11.873Z,81.65
2019-01-25T05:18:11.865Z,81.65
2019-01-25T05:19:11.856Z,81.86
2019-01-25T05:20:11.878Z,81.54
2019-01-25T05:21:11.833Z,81.54
2019-01-25T05:22:11.820Z,82.17
2019-01-25T05:23:11.814Z,81.96
2019-01-25T05:24:11.796Z,81.96
2019-01-25T05:25:11.831Z,81.76
2019-01-25T05:26:11.842Z,82.17
2019-01-25T05:27:11.766Z,82.17
2019-01-25T05:28:11.753Z,81.76
2019-01-25T05:29:11.743Z,81.76
2019-01-25T05:30:11.735Z,81.65
2019-01-25T05:31:11.772Z,81.76
2019-01-25T05:32:11.709Z,81.54
2019-01-25T05:33:11.698Z,82.17
2019-01-25T05:34:11.703Z,81.54
2019-01-25T05:35:11.688Z,81.65
2019-01-25T05:36:11.694Z,81.65
2019-01-25T05:37:11.652Z,82.07
2019-01-25T05:38:11.642Z,81.76
2019-01-25T05:39:11.636Z,81.86
2019-01-25T05:40:11.638Z,82.07
2019-01-25T05:41:11.638Z,82.49
2019-01-25T05:42:11.604Z,82.28
2019-01-25T05:43:11.594Z,81.96
2019-01-25T05:44:11.581Z,82.17
2019-01-25T05:45:11.583Z,82.28
2019-01-25T05:46:11.590Z,83.12
2019-01-25T05:47:12.452Z,85.39
2019-01-25T05:48:11.537Z,86.92
2019-01-25T05:49:11.531Z,86.51
2019-01-25T05:50:11.522Z,85.46
2019-01-25T05:51:11.505Z,84.62
2019-01-25T05:52:11.524Z,84.09
2019-01-25T05:53:11.484Z,83.57
2019-01-25T05:54:11.467Z,82.94
2019-01-25T05:55:11.466Z,82.98
2019-01-25T05:56:11.459Z,83.18
2019-01-25T05:57:11.438Z,82.52
2019-01-25T05:58:11.477Z,82.35
2019-01-25T05:59:11.436Z,82.45
2019-01-25T06:00:11.406Z,82.76
2019-01-25T06:01:11.403Z,82.56
2019-01-25T06:02:11.384Z,82.66
2019-01-25T06:03:11.433Z,82.56
2019-01-25T06:04:11.361Z,83.08
2019-01-25T06:05:11.351Z,82.98
2019-01-25T06:06:11.959Z,83.18
2019-01-25T06:07:11.341Z,83.92
2019-01-25T06:08:11.392Z,83.86
2019-01-25T06:09:11.315Z,83.12
2019-01-25T06:10:11.298Z,84.17
2019-01-25T06:11:11.287Z,84.27
2019-01-25T06:12:11.280Z,84.69
2019-01-25T06:13:11.265Z,85.08
2019-01-25T06:14:11.340Z,86.65
2019-01-25T06:15:11.237Z,88.07
2019-01-25T06:16:11.228Z,87.97
2019-01-25T06:17:11.219Z,87.45
2019-01-25T06:18:11.210Z,87.76
2019-01-25T06:19:11.221Z,86.46
2019-01-25T06:20:11.195Z,86.51
2019-01-25T06:21:11.178Z,86.19
2019-01-25T06:22:11.169Z,85.98
2019-01-25T06:23:11.160Z,85.35
2019-01-25T06:24:11.223Z,85.03
2019-01-25T06:25:11.136Z,84.93
2019-01-25T06:26:11.119Z,84.51
2019-01-25T06:27:11.195Z,84.66
2019-01-25T06:28:11.119Z,84.34
2019-01-25T06:29:11.119Z,84.86
2019-01-25T06:30:11.147Z,84.97
2019-01-25T06:31:11.097Z,84.97
2019-01-25T06:32:11.055Z,85.18
2019-01-25T06:33:11.073Z,84.76
2019-01-25T06:34:11.037Z,85.39
2019-01-25T06:35:11.060Z,86.33
2019-01-25T06:36:11.010Z,85.91
2019-01-25T06:37:11.035Z,85.81
2019-01-25T06:38:10.994Z,85.28
2019-01-25T06:39:10.977Z,85.64
2019-01-25T06:40:10.988Z,85.18
2019-01-25T06:41:10.959Z,85.49
2019-01-25T06:42:10.975Z,85.60
2019-01-25T06:43:10.992Z,85.81
2019-01-25T06:44:10.942Z,85.08
2019-01-25T06:45:10.919Z,85.28
2019-01-25T06:46:10.962Z,85.28
2019-01-25T06:47:10.892Z,85.60
2019-01-25T06:48:10.894Z,85.22
2019-01-25T06:49:10.876Z,85.18
2019-01-25T06:50:10.868Z,85.28
2019-01-25T06:51:10.857Z,85.39
2019-01-25T06:52:10.879Z,85.08
2019-01-25T06:53:10.841Z,84.97
2019-01-25T06:54:10.814Z,85.18
2019-01-25T06:55:10.820Z,85.60
2019-01-25T06:56:10.830Z,85.32
2019-01-25T06:57:10.794Z,85.39
2019-01-25T06:58:10.772Z,85.28
2019-01-25T06:59:10.792Z,85.28
2019-01-25T07:00:10.768Z,86.16
2019-01-25T07:01:10.768Z,86.12
2019-01-25T07:02:10.728Z,86.23
2019-01-25T07:03:10.720Z,86.65
2019-01-25T07:04:10.709Z,86.86
2019-01-25T07:05:10.697Z,86.76
2019-01-25T07:06:10.686Z,86.23
2019-01-25T07:07:10.706Z,86.76
2019-01-25T07:08:10.665Z,86.47
2019-01-25T07:09:10.653Z,87.11
2019-01-25T07:10:10.647Z,87.42
2019-01-25T07:11:10.654Z,87.32
2019-01-25T07:12:10.622Z,87.42
2019-01-25T07:13:10.619Z,88.32
2019-01-25T07:14:10.624Z,87.63
2019-01-25T07:15:10.592Z,87.70
2019-01-25T07:16:10.585Z,87.84
2019-01-25T07:17:10.577Z,87.49
2019-01-25T07:18:10.565Z,87.91
2019-01-25T07:19:10.545Z,88.22
2019-01-25T07:20:10.682Z,88.05
2019-01-25T07:21:10.523Z,87.91
2019-01-25T07:22:10.513Z,87.80
2019-01-25T07:23:10.580Z,87.91
2019-01-25T07:24:10.491Z,87.95
2019-01-25T07:25:10.475Z,88.12
2019-01-25T07:26:10.481Z,88.54
2019-01-25T07:27:10.462Z,87.91
2019-01-25T07:28:10.452Z,88.57
2019-01-25T07:29:10.469Z,88.57
2019-01-25T07:30:10.424Z,88.79
2019-01-25T07:31:10.429Z,88.54
2019-01-25T07:32:10.454Z,89.62
2019-01-25T07:33:10.402Z,89.42
2019-01-25T07:34:10.395Z,89.52
2019-01-25T07:35:10.374Z,89.21
2019-01-25T07:36:10.387Z,89.42
2019-01-25T07:37:10.365Z,89.10
2019-01-25T07:38:10.389Z,89.94
2019-01-25T07:39:10.420Z,89.94
2019-01-25T07:40:10.339Z,89.79
2019-01-25T07:41:10.325Z,89.90
2019-01-25T07:42:10.318Z,89.69
2019-01-25T07:43:10.310Z,90.11
2019-01-25T07:44:10.296Z,90.00
2019-01-25T07:45:10.287Z,89.79
2019-01-25T07:46:10.269Z,90.32
2019-01-25T07:47:10.247Z,90.22
2019-01-25T07:48:10.233Z,90.11
2019-01-25T07:49:10.293Z,90.11
2019-01-25T07:50:10.213Z,90.11
2019-01-25T07:51:10.203Z,90.22
2019-01-25T07:52:10.190Z,90.84
2019-01-25T07:53:10.180Z,90.74
2019-01-25T07:54:10.217Z,90.99
2019-01-25T07:55:10.326Z,90.89
2019-01-25T07:56:10.184Z,90.95
2019-01-25T07:57:10.146Z,90.95
2019-01-25T07:58:10.128Z,90.57
2019-01-25T07:59:10.110Z,91.30
2019-01-25T08:00:10.142Z,90.99
2019-01-25T08:01:10.167Z,91.05
2019-01-25T08:02:10.092Z,91.27
2019-01-25T08:03:10.171Z,91.27
2019-01-25T08:04:10.119Z,91.22
2019-01-25T08:05:10.724Z,91.27
2019-01-25T08:06:10.032Z,91.47
2019-01-25T08:07:10.047Z,90.84
2019-01-25T08:08:10.057Z,91.27
2019-01-25T08:09:10.027Z,91.05
2019-01-25T08:10:10.017Z,91.16
2019-01-25T08:11:09.985Z,91.16
2019-01-25T08:12:09.974Z,91.05
2019-01-25T08:13:10.018Z,91.16
2019-01-25T08:14:09.977Z,90.84
2019-01-25T08:15:09.966Z,90.89
2019-01-25T08:16:09.931Z,91.16
2019-01-25T08:17:09.916Z,91.37
2019-01-25T08:18:09.921Z,91.16
2019-01-25T08:19:09.956Z,91.37
2019-01-25T08:20:09.886Z,91.37
2019-01-25T08:21:09.897Z,91.37
2019-01-25T08:22:09.927Z,91.47
2019-01-25T08:23:09.912Z,91.27
2019-01-25T08:24:09.861Z,91.05
2019-01-25T08:25:09.844Z,91.01
2019-01-25T08:26:09.820Z,91.16
2019-01-25T08:27:09.823Z,91.16
2019-01-25T08:28:09.829Z,91.05
2019-01-25T08:29:09.783Z,91.05
2019-01-25T08:30:09.807Z,91.01
2019-01-25T08:31:09.772Z,91.01
2019-01-25T08:32:09.762Z,91.05
2019-01-25T08:33:09.768Z,91.12
2019-01-25T08:34:09.754Z,91.01
2019-01-25T08:35:09.900Z,91.33
2019-01-25T08:36:09.706Z,91.27
2019-01-25T08:37:09.701Z,91.22
2019-01-25T08:38:09.685Z,91.22
2019-01-25T08:39:09.703Z,91.22
2019-01-25T08:40:09.665Z,91.01
2019-01-25T08:41:09.653Z,91.43
2019-01-25T08:42:15.384Z,91.01
2019-01-25T08:43:10.708Z,91.16
2019-01-25T08:44:09.624Z,90.91
2019-01-25T08:45:09.648Z,91.22
2019-01-25T08:46:09.631Z,91.05
2019-01-25T08:47:09.635Z,91.33
2019-01-25T08:48:09.586Z,90.49
2019-01-25T08:49:09.570Z,90.70
2019-01-25T08:50:09.555Z,90.80
2019-01-25T08:51:09.961Z,90.80
2019-01-25T08:52:10.783Z,90.80
2019-01-25T08:53:09.559Z,90.80
2019-01-25T08:54:09.512Z,90.49
2019-01-25T08:55:09.500Z,90.80
2019-01-25T08:56:09.494Z,90.91
2019-01-25T08:57:09.488Z,90.70
2019-01-25T08:58:09.488Z,90.87
2019-01-25T08:59:09.626Z,90.55
2019-01-25T09:00:09.449Z,89.92
2019-01-25T09:01:09.460Z,90.23
2019-01-25T09:02:09.490Z,90.23
2019-01-25T09:03:09.453Z,89.50
2019-01-25T09:04:09.403Z,89.82
2019-01-25T09:05:09.745Z,89.82
2019-01-25T09:06:09.384Z,89.75
2019-01-25T09:07:09.393Z,89.82
2019-01-25T09:08:09.361Z,89.82
2019-01-25T09:09:09.365Z,89.92
2019-01-25T09:10:09.334Z,89.92
2019-01-25T09:11:09.326Z,89.72
2019-01-25T09:12:09.318Z,89.82
2019-01-25T09:13:09.341Z,89.88
2019-01-25T09:14:09.340Z,89.88
2019-01-25T09:15:09.309Z,89.88
2019-01-25T09:16:09.302Z,89.78
2019-01-25T09:17:09.260Z,90.03
2019-01-25T09:18:09.264Z,90.09
2019-01-25T09:19:09.267Z,89.88
2019-01-25T09:20:14.430Z,88.94
2019-01-25T09:21:10.243Z,88.94
2019-01-25T09:22:09.214Z,88.84
2019-01-25T09:23:09.197Z,89.04
2019-01-25T09:24:09.186Z,89.36
2019-01-25T09:25:09.176Z,89.57
2019-01-25T09:26:09.198Z,89.25
2019-01-25T09:27:09.164Z,89.15
2019-01-25T09:28:09.142Z,89.25
2019-01-25T09:29:09.160Z,89.15
2019-01-25T09:30:09.122Z,89.25
2019-01-25T09:31:09.114Z,88.84
2019-01-25T09:32:09.103Z,89.04
2019-01-25T09:33:09.087Z,88.73
2019-01-25T09:34:09.086Z,88.94
2019-01-25T09:35:09.099Z,88.73
2019-01-25T09:36:09.058Z,88.94
2019-01-25T09:37:09.047Z,89.42
2019-01-25T09:38:09.092Z,88.62
2019-01-25T09:39:09.024Z,88.73
2019-01-25T09:40:09.025Z,89.04
2019-01-25T09:41:09.002Z,88.90
2019-01-25T09:42:08.989Z,88.79
2019-01-25T09:43:08.988Z,88.79
2019-01-25T09:44:09.003Z,88.90
2019-01-25T09:45:08.970Z,88.48
2019-01-25T09:46:08.974Z,88.69
2019-01-25T09:47:08.940Z,88.90
2019-01-25T09:48:08.939Z,88.79
2019-01-25T09:49:08.918Z,88.69
2019-01-25T09:50:08.900Z,88.79
2019-01-25T09:51:08.894Z,88.75
2019-01-25T09:52:08.947Z,88.65
2019-01-25T09:53:08.908Z,88.65
2019-01-25T09:54:08.859Z,88.86
2019-01-25T09:55:08.852Z,88.90
2019-01-25T09:56:08.836Z,88.75
2019-01-25T09:57:08.845Z,88.54
2019-01-25T09:58:08.809Z,88.34
2019-01-25T09:59:08.805Z,88.96
2019-01-25T10:00:08.790Z,89.07
2019-01-25T10:01:08.821Z,88.75
2019-01-25T10:02:08.779Z,88.75
2019-01-25T10:03:08.784Z,88.75
2019-01-25T10:04:08.845Z,89.38
2019-01-25T10:05:08.740Z,88.54
2019-01-25T10:06:08.729Z,89.28
2019-01-25T10:07:08.728Z,89.38
2019-01-25T10:08:08.703Z,89.38
2019-01-25T10:09:08.713Z,88.75
2019-01-25T10:10:08.693Z,89.34
2019-01-25T10:11:08.676Z,88.65
2019-01-25T10:12:08.674Z,88.50
2019-01-25T10:13:08.645Z,89.34
2019-01-25T10:14:08.672Z,88.61
2019-01-25T10:15:08.634Z,88.61
2019-01-25T10:16:08.617Z,88.71
2019-01-25T10:17:08.608Z,88.82
2019-01-25T10:18:08.623Z,88.40
2019-01-25T10:19:08.582Z,88.09
2019-01-25T10:20:08.600Z,87.98
2019-01-25T10:21:08.566Z,88.15
2019-01-25T10:22:08.863Z,88.04
2019-01-25T10:23:08.549Z,88.15
2019-01-25T10:24:08.533Z,88.15
2019-01-25T10:25:08.659Z,87.63
2019-01-25T10:26:08.538Z,88.04
2019-01-25T10:27:08.512Z,87.63
2019-01-25T10:28:08.501Z,87.94
2019-01-25T10:29:08.474Z,87.94
2019-01-25T10:30:08.481Z,87.73
2019-01-25T10:31:08.488Z,88.04
2019-01-25T10:32:08.439Z,87.52
2019-01-25T10:33:08.436Z,87.42
2019-01-25T10:34:08.419Z,87.52
2019-01-25T10:35:08.422Z,87.10
2019-01-25T10:36:08.396Z,87.21
2019-01-25T10:37:08.424Z,87.73
2019-01-25T10:38:08.377Z,87.52
2019-01-25T10:39:08.384Z,87.52
2019-01-25T10:40:08.351Z,87.00
2019-01-25T10:41:08.343Z,87.07
2019-01-25T10:42:08.355Z,87.73
2019-01-25T10:43:08.348Z,87.69
2019-01-25T10:44:08.433Z,87.52
2019-01-25T10:45:08.300Z,87.59
2019-01-25T10:46:08.290Z,88.42
2019-01-25T10:47:08.278Z,88.21
2019-01-25T10:48:08.294Z,88.32
2019-01-25T10:49:08.263Z,88.01
2019-01-25T10:50:08.250Z,88.01
2019-01-25T10:51:08.259Z,87.90
2019-01-25T10:52:09.123Z,87.69
2019-01-25T10:53:08.223Z,88.32
2019-01-25T10:54:08.199Z,87.38
2019-01-25T10:55:08.195Z,87.48
2019-01-25T10:56:08.199Z,87.55
2019-01-25T10:57:08.987Z,87.90
2019-01-25T10:58:08.158Z,87.90
2019-01-25T10:59:08.164Z,87.90
2019-01-25T11:00:08.143Z,87.69
2019-01-25T11:01:08.133Z,87.76
2019-01-25T11:02:08.118Z,87.23
2019-01-25T11:03:08.111Z,87.48
2019-01-25T11:04:11.531Z,87.27
2019-01-25T11:05:08.192Z,88.01
2019-01-25T11:06:08.073Z,87.27
2019-01-25T11:07:08.062Z,87.34
2019-01-25T11:08:08.151Z,87.45
2019-01-25T11:09:08.066Z,87.48
2019-01-25T11:10:08.028Z,87.55
2019-01-25T11:11:08.019Z,87.65
2019-01-25T11:12:08.006Z,87.17
2019-01-25T11:13:08.008Z,87.27
2019-01-25T11:14:07.987Z,87.80
2019-01-25T11:15:08.034Z,88.01
2019-01-25T11:16:11.897Z,87.48
2019-01-25T11:17:07.951Z,87.80
2019-01-25T11:18:07.936Z,88.21
2019-01-25T11:19:07.925Z,88.11
2019-01-25T11:20:07.919Z,88.11
2019-01-25T11:21:08.106Z,88.64
2019-01-25T11:22:07.901Z,88.21
2019-01-25T11:23:07.885Z,88.21
2019-01-25T11:24:08.045Z,88.53
2019-01-25T11:25:07.878Z,88.21
2019-01-25T11:26:07.886Z,87.96
2019-01-25T11:27:07.858Z,87.96
2019-01-25T11:28:07.826Z,87.96
2019-01-25T11:29:07.818Z,87.96
2019-01-25T11:30:07.809Z,88.11
2019-01-25T11:31:07.797Z,88.07
2019-01-25T11:32:07.822Z,87.96
2019-01-25T11:33:07.778Z,87.45
2019-01-25T11:34:07.764Z,87.96
2019-01-25T11:35:07.765Z,87.59
2019-01-25T11:36:07.742Z,88.11
2019-01-25T11:37:07.784Z,87.96
2019-01-25T11:38:07.755Z,88.95
2019-01-25T11:39:07.736Z,88.64
2019-01-25T11:40:07.706Z,88.42
2019-01-25T11:41:07.688Z,89.26
2019-01-25T11:42:07.680Z,88.74
2019-01-25T11:43:08.843Z,88.74
2019-01-25T11:44:07.702Z,88.53
2019-01-25T11:45:07.645Z,88.74
2019-01-25T11:46:07.632Z,88.64
2019-01-25T11:47:07.616Z,88.74
2019-01-25T11:48:07.610Z,88.90
2019-01-25T11:49:07.625Z,88.74
2019-01-25T11:50:07.614Z,88.59
2019-01-25T11:51:07.582Z,88.07
2019-01-25T11:52:07.574Z,88.39
2019-01-25T11:53:07.629Z,88.17
2019-01-25T11:54:07.575Z,88.84
2019-01-25T11:55:07.539Z,88.32
2019-01-25T11:56:07.528Z,88.49
2019-01-25T11:57:07.529Z,88.49
2019-01-25T11:58:07.501Z,88.97
2019-01-25T11:59:07.516Z,88.55
2019-01-25T12:00:07.493Z,88.03
2019-01-25T12:01:08.001Z,87.51
2019-01-25T12:02:07.471Z,87.51
2019-01-25T12:03:07.449Z,86.67
2019-01-25T12:04:07.466Z,86.25
2019-01-25T12:05:07.426Z,86.15
2019-01-25T12:06:07.479Z,86.36
2019-01-25T12:07:07.404Z,86.25
2019-01-25T12:08:07.401Z,86.11
2019-01-25T12:09:07.382Z,86.32
2019-01-25T12:10:07.393Z,85.94
2019-01-25T12:11:07.362Z,85.90
2019-01-25T12:12:07.996Z,85.83
2019-01-25T12:13:07.334Z,85.69
2019-01-25T12:14:07.341Z,85.80
2019-01-25T12:15:07.327Z,85.90
2019-01-25T12:16:07.349Z,85.38
2019-01-25T12:17:07.295Z,85.86
2019-01-25T12:18:07.278Z,85.86
2019-01-25T12:19:07.275Z,85.34
2019-01-25T12:20:07.370Z,84.61
2019-01-25T12:21:07.248Z,85.13
2019-01-25T12:22:07.264Z,84.82
2019-01-25T12:23:07.244Z,84.82
2019-01-25T12:24:07.223Z,84.75
2019-01-25T12:25:07.212Z,84.92
2019-01-25T12:26:07.219Z,84.61
2019-01-25T12:27:07.209Z,85.17
2019-01-25T12:28:07.208Z,85.34
2019-01-25T12:29:07.166Z,85.17
2019-01-25T12:30:07.154Z,84.50
2019-01-25T12:31:07.999Z,85.03
2019-01-25T12:32:07.999Z,84.72
2019-01-25T12:33:07.993Z,84.82
2019-01-25T12:34:07.137Z,84.72
2019-01-25T12:35:07.538Z,84.30
2019-01-25T12:36:07.192Z,84.09
2019-01-25T12:37:07.076Z,84.09
2019-01-25T12:38:07.107Z,84.50
2019-01-25T12:39:07.052Z,84.19
2019-01-25T12:40:07.048Z,84.50
2019-01-25T12:41:07.080Z,84.26
2019-01-25T12:42:07.020Z,83.84
2019-01-25T12:43:07.005Z,83.84
2019-01-25T12:44:07.010Z,84.09
2019-01-25T12:45:06.991Z,83.74
2019-01-25T12:46:06.994Z,83.84
2019-01-25T12:47:06.967Z,83.63
2019-01-25T12:48:06.961Z,83.63
2019-01-25T12:49:06.940Z,83.42
2019-01-25T12:50:06.966Z,83.74
2019-01-25T12:51:06.916Z,83.11
2019-01-25T12:52:08.467Z,83.01